sensor_id;sensor_type;location;lat;lon;timestamp;pressure;altitude;pressure_sealevel;temperature;humidity
27202;BME280;14717;46.924;15.474;2023-02-01T00:02:01;98048.03;;;-1.52;93.69
27202;BME280;14717;46.924;15.474;2023-02-01T00:04:27;98037.63;;;-1.62;92.51
27202;BME280;14717;46.924;15.474;2023-02-01T00:06:53;98040.53;;;-1.57;93.30
27202;BME280;14717;46.924;15.474;2023-02-01T00:09:18;98041.72;;;-1.46;93.64
27202;BME280;14717;46.924;15.474;2023-02-01T00:11:43;98025.03;;;-1.37;92.30
27202;BME280;14717;46.924;15.474;2023-02-01T00:14:09;98027.91;;;-1.26;92.37
27202;BME280;14717;46.924;15.474;2023-02-01T00:16:34;98041.88;;;-1.28;91.78
27202;BME280;14717;46.924;15.474;2023-02-01T00:19:09;98030.94;;;-1.53;91.67
27202;BME280;14717;46.924;15.474;2023-02-01T00:21:35;98038.00;;;-1.52;92.25
27202;BME280;14717;46.924;15.474;2023-02-01T00:24:00;98037.56;;;-1.42;92.90
27202;BME280;14717;46.924;15.474;2023-02-01T00:26:38;98045.00;;;-1.31;91.76
27202;BME280;14717;46.924;15.474;2023-02-01T00:29:06;98048.25;;;-1.67;91.28
27202;BME280;14717;46.924;15.474;2023-02-01T00:31:32;98053.31;;;-1.89;93.30
27202;BME280;14717;46.924;15.474;2023-02-01T00:33:57;98061.44;;;-1.96;95.05
27202;BME280;14717;46.924;15.474;2023-02-01T00:36:23;98056.41;;;-1.86;94.56
27202;BME280;14717;46.924;15.474;2023-02-01T00:38:48;98049.16;;;-1.79;94.03
27202;BME280;14717;46.924;15.474;2023-02-01T00:41:16;98042.06;;;-1.80;94.99
27202;BME280;14717;46.924;15.474;2023-02-01T00:43:43;98054.56;;;-1.92;94.52
27202;BME280;14717;46.924;15.474;2023-02-01T00:46:10;98068.94;;;-1.98;95.07
27202;BME280;14717;46.924;15.474;2023-02-01T00:48:36;98060.38;;;-1.82;95.10
27202;BME280;14717;46.924;15.474;2023-02-01T00:51:07;98056.41;;;-1.86;95.31
27202;BME280;14717;46.924;15.474;2023-02-01T00:53:33;98047.25;;;-1.72;93.96
27202;BME280;14717;46.924;15.474;2023-02-01T00:55:58;98046.84;;;-1.69;93.73
27202;BME280;14717;46.924;15.474;2023-02-01T00:58:24;98057.25;;;-1.79;93.87
27202;BME280;14717;46.924;15.474;2023-02-01T01:01:15;98047.28;;;-1.91;93.85
27202;BME280;14717;46.924;15.474;2023-02-01T01:03:44;98057.69;;;-1.95;93.94
27202;BME280;14717;46.924;15.474;2023-02-01T01:06:14;98050.19;;;-1.99;94.00
27202;BME280;14717;46.924;15.474;2023-02-01T01:08:43;98045.19;;;-1.96;94.38
27202;BME280;14717;46.924;15.474;2023-02-01T01:13:36;98046.47;;;-1.92;93.92
27202;BME280;14717;46.924;15.474;2023-02-01T01:16:02;98038.53;;;-1.87;94.10
27202;BME280;14717;46.924;15.474;2023-02-01T01:18:28;98023.81;;;-2.16;94.32
27202;BME280;14717;46.924;15.474;2023-02-01T01:20:54;98012.78;;;-2.28;95.41
27202;BME280;14717;46.924;15.474;2023-02-01T01:23:19;98010.91;;;-2.21;95.61
27202;BME280;14717;46.924;15.474;2023-02-01T01:25:45;98003.19;;;-2.11;95.09
27202;BME280;14717;46.924;15.474;2023-02-01T01:28:10;97991.56;;;-2.12;94.29
27202;BME280;14717;46.924;15.474;2023-02-01T01:30:36;97985.94;;;-2.04;95.46
27202;BME280;14717;46.924;15.474;2023-02-01T01:33:01;97981.94;;;-1.95;94.88
27202;BME280;14717;46.924;15.474;2023-02-01T01:35:29;97990.31;;;-2.22;94.84
27202;BME280;14717;46.924;15.474;2023-02-01T01:37:56;97966.81;;;-2.28;95.60
27202;BME280;14717;46.924;15.474;2023-02-01T01:40:21;97961.19;;;-2.20;96.03
27202;BME280;14717;46.924;15.474;2023-02-01T01:42:47;97968.44;;;-2.08;96.13
27202;BME280;14717;46.924;15.474;2023-02-01T01:45:27;97965.69;;;-1.88;96.32
27202;BME280;14717;46.924;15.474;2023-02-01T01:48:06;97969.59;;;-1.78;95.11
27202;BME280;14717;46.924;15.474;2023-02-01T01:50:42;97971.09;;;-1.82;94.95
27202;BME280;14717;46.924;15.474;2023-02-01T01:53:12;97987.78;;;-2.04;94.70
27202;BME280;14717;46.924;15.474;2023-02-01T01:55:42;97979.28;;;-2.14;95.88
27202;BME280;14717;46.924;15.474;2023-02-01T01:58:12;97986.56;;;-2.14;96.13
27202;BME280;14717;46.924;15.474;2023-02-01T02:00:39;97982.19;;;-2.22;96.62
27202;BME280;14717;46.924;15.474;2023-02-01T02:03:14;97990.13;;;-2.33;98.30
27202;BME280;14717;46.924;15.474;2023-02-01T02:05:42;98004.06;;;-2.36;99.36
27202;BME280;14717;46.924;15.474;2023-02-01T02:08:09;97984.50;;;-2.25;98.91
27202;BME280;14717;46.924;15.474;2023-02-01T02:10:34;97969.53;;;-2.21;97.94
27202;BME280;14717;46.924;15.474;2023-02-01T02:13:19;97972.63;;;-2.12;96.70
27202;BME280;14717;46.924;15.474;2023-02-01T02:22:02;97981.81;;;-2.38;98.45
27202;BME280;14717;46.924;15.474;2023-02-01T02:27:17;98003.03;;;-2.48;98.63
27202;BME280;14717;46.924;15.474;2023-02-01T02:30:22;97979.94;;;-2.31;97.71
27202;BME280;14717;46.924;15.474;2023-02-01T02:39:13;97971.63;;;-2.23;96.74
27202;BME280;14717;46.924;15.474;2023-02-01T02:53:17;97960.56;;;-2.22;94.81
27202;BME280;14717;46.924;15.474;2023-02-01T02:56:05;97946.63;;;-2.25;94.47
27202;BME280;14717;46.924;15.474;2023-02-01T02:58:51;97950.63;;;-2.47;95.39
27202;BME280;14717;46.924;15.474;2023-02-01T03:01:37;97954.13;;;-2.40;95.59
27202;BME280;14717;46.924;15.474;2023-02-01T03:04:21;97962.50;;;-2.54;95.50
27202;BME280;14717;46.924;15.474;2023-02-01T03:06:48;97968.72;;;-2.54;96.54
27202;BME280;14717;46.924;15.474;2023-02-01T03:09:23;97954.38;;;-2.48;96.03
27202;BME280;14717;46.924;15.474;2023-02-01T03:11:56;97969.75;;;-2.42;95.62
27202;BME280;14717;46.924;15.474;2023-02-01T03:14:46;97949.59;;;-2.46;95.61
27202;BME280;14717;46.924;15.474;2023-02-01T03:17:19;97955.00;;;-2.53;94.86
27202;BME280;14717;46.924;15.474;2023-02-01T03:19:51;97953.75;;;-2.56;95.96
27202;BME280;14717;46.924;15.474;2023-02-01T03:22:20;97961.22;;;-2.65;96.26
27202;BME280;14717;46.924;15.474;2023-02-01T03:27:20;97960.63;;;-2.67;96.01
27202;BME280;14717;46.924;15.474;2023-02-01T03:29:58;97961.66;;;-2.68;95.15
27202;BME280;14717;46.924;15.474;2023-02-01T03:32:26;97956.47;;;-2.76;96.01
27202;BME280;14717;46.924;15.474;2023-02-01T03:34:52;97959.78;;;-2.67;95.50
27202;BME280;14717;46.924;15.474;2023-02-01T03:37:26;97968.53;;;-2.72;96.87
27202;BME280;14717;46.924;15.474;2023-02-01T03:40:06;97958.34;;;-2.96;95.99
27202;BME280;14717;46.924;15.474;2023-02-01T03:42:43;97954.59;;;-2.95;96.68
27202;BME280;14717;46.924;15.474;2023-02-01T03:45:13;97953.16;;;-2.91;97.15
27202;BME280;14717;46.924;15.474;2023-02-01T03:47:47;97964.16;;;-2.86;97.04
27202;BME280;14717;46.924;15.474;2023-02-01T03:50:17;97956.06;;;-2.86;97.94
27202;BME280;14717;46.924;15.474;2023-02-01T03:52:48;97962.91;;;-2.77;96.89
27202;BME280;14717;46.924;15.474;2023-02-01T03:55:18;97958.75;;;-2.73;96.60
27202;BME280;14717;46.924;15.474;2023-02-01T03:58:12;97961.69;;;-2.74;97.26
27202;BME280;14717;46.924;15.474;2023-02-01T04:00:38;97974.75;;;-2.91;97.31
27202;BME280;14717;46.924;15.474;2023-02-01T04:03:05;97975.59;;;-2.90;97.71
27202;BME280;14717;46.924;15.474;2023-02-01T04:05:31;97969.13;;;-2.83;97.34
27202;BME280;14717;46.924;15.474;2023-02-01T04:07:57;97979.09;;;-2.90;97.00
27202;BME280;14717;46.924;15.474;2023-02-01T04:10:22;97993.81;;;-3.11;97.74
27202;BME280;14717;46.924;15.474;2023-02-01T04:12:48;97974.94;;;-3.05;98.10
27202;BME280;14717;46.924;15.474;2023-02-01T04:15:13;97981.19;;;-2.92;97.66
27202;BME280;14717;46.924;15.474;2023-02-01T04:17:38;97996.53;;;-3.05;96.65
27202;BME280;14717;46.924;15.474;2023-02-01T04:20:04;97991.94;;;-3.11;97.91
27202;BME280;14717;46.924;15.474;2023-02-01T04:22:30;97995.09;;;-3.01;98.54
27202;BME280;14717;46.924;15.474;2023-02-01T04:24:55;97980.53;;;-3.06;98.34
27202;BME280;14717;46.924;15.474;2023-02-01T04:27:21;97998.19;;;-2.97;99.04
27202;BME280;14717;46.924;15.474;2023-02-01T04:29:46;97993.25;;;-2.94;98.15
27202;BME280;14717;46.924;15.474;2023-02-01T04:32:15;97977.84;;;-3.00;98.93
27202;BME280;14717;46.924;15.474;2023-02-01T04:34:41;97989.47;;;-2.99;98.79
27202;BME280;14717;46.924;15.474;2023-02-01T04:37:06;97984.09;;;-2.87;98.52
27202;BME280;14717;46.924;15.474;2023-02-01T04:39:32;97977.88;;;-2.94;97.91
27202;BME280;14717;46.924;15.474;2023-02-01T04:41:58;97974.34;;;-2.94;98.09
27202;BME280;14717;46.924;15.474;2023-02-01T04:44:23;97978.06;;;-2.89;97.89
27202;BME280;14717;46.924;15.474;2023-02-01T04:46:48;97976.00;;;-2.87;97.42
27202;BME280;14717;46.924;15.474;2023-02-01T04:49:14;97977.88;;;-2.87;97.41
27202;BME280;14717;46.924;15.474;2023-02-01T04:51:40;97973.72;;;-2.77;97.01
27202;BME280;14717;46.924;15.474;2023-02-01T04:54:07;97973.09;;;-2.85;97.07
27202;BME280;14717;46.924;15.474;2023-02-01T04:56:33;97986.38;;;-2.90;97.16
27202;BME280;14717;46.924;15.474;2023-02-01T04:59:00;97970.38;;;-2.92;96.35
27202;BME280;14717;46.924;15.474;2023-02-01T05:01:28;97969.56;;;-2.92;97.24
27202;BME280;14717;46.924;15.474;2023-02-01T05:03:53;97981.81;;;-2.90;96.54
27202;BME280;14717;46.924;15.474;2023-02-01T05:06:19;97977.81;;;-3.19;97.43
27202;BME280;14717;46.924;15.474;2023-02-01T05:08:44;97967.84;;;-3.12;98.09
27202;BME280;14717;46.924;15.474;2023-02-01T05:11:09;97965.16;;;-2.99;98.24
27202;BME280;14717;46.924;15.474;2023-02-01T05:13:55;97989.44;;;-3.12;97.21
27202;BME280;14717;46.924;15.474;2023-02-01T05:16:20;97978.88;;;-3.07;98.31
27202;BME280;14717;46.924;15.474;2023-02-01T05:18:48;97967.88;;;-2.99;98.49
27202;BME280;14717;46.924;15.474;2023-02-01T05:21:13;97979.72;;;-2.88;98.20
27202;BME280;14717;46.924;15.474;2023-02-01T05:23:41;97959.56;;;-2.92;97.48
27202;BME280;14717;46.924;15.474;2023-02-01T05:26:25;97971.19;;;-2.97;97.96
27202;BME280;14717;46.924;15.474;2023-02-01T05:28:51;97976.19;;;-2.88;97.90
27202;BME280;14717;46.924;15.474;2023-02-01T05:31:16;97973.09;;;-2.92;97.03
27202;BME280;14717;46.924;15.474;2023-02-01T05:33:42;97971.81;;;-2.83;96.79
27202;BME280;14717;46.924;15.474;2023-02-01T05:36:08;97971.84;;;-2.89;96.26
27202;BME280;14717;46.924;15.474;2023-02-01T05:38:33;97989.91;;;-2.90;96.81
27202;BME280;14717;46.924;15.474;2023-02-01T06:43:34;98008.13;;;-3.30;98.97
27202;BME280;14717;46.924;15.474;2023-02-01T06:46:01;98012.66;;;-3.31;98.20
27202;BME280;14717;46.924;15.474;2023-02-01T06:48:27;98007.50;;;-3.26;98.92
27202;BME280;14717;46.924;15.474;2023-02-01T06:50:52;98015.00;;;-3.15;98.39
27202;BME280;14717;46.924;15.474;2023-02-01T06:53:18;98035.41;;;-2.99;97.31
27202;BME280;14717;46.924;15.474;2023-02-01T06:55:52;98022.31;;;-2.96;97.29
27202;BME280;14717;46.924;15.474;2023-02-01T06:58:17;98022.94;;;-3.07;96.61
27202;BME280;14717;46.924;15.474;2023-02-01T07:00:42;98019.81;;;-3.04;97.35
27202;BME280;14717;46.924;15.474;2023-02-01T07:03:08;98021.91;;;-2.87;97.84
27202;BME280;14717;46.924;15.474;2023-02-01T07:05:33;98024.44;;;-2.79;96.79
27202;BME280;14717;46.924;15.474;2023-02-01T07:07:58;98023.16;;;-2.83;97.56
27202;BME280;14717;46.924;15.474;2023-02-01T07:10:24;98025.66;;;-2.81;97.22
27202;BME280;14717;46.924;15.474;2023-02-01T07:12:49;98029.00;;;-2.73;97.30
27202;BME280;14717;46.924;15.474;2023-02-01T07:15:15;98038.56;;;-2.64;96.43
27202;BME280;14717;46.924;15.474;2023-02-01T07:17:40;98026.28;;;-2.66;97.06
27202;BME280;14717;46.924;15.474;2023-02-01T07:20:06;98041.69;;;-2.60;96.92
27202;BME280;14717;46.924;15.474;2023-02-01T07:22:31;98036.09;;;-2.59;97.06
27202;BME280;14717;46.924;15.474;2023-02-01T07:24:57;98016.56;;;-2.48;97.36
27202;BME280;14717;46.924;15.474;2023-02-01T07:27:22;98010.91;;;-2.40;97.57
27202;BME280;14717;46.924;15.474;2023-02-01T07:29:50;98015.50;;;-2.21;97.67
27202;BME280;14717;46.924;15.474;2023-02-01T07:32:15;98014.00;;;-2.11;96.92
27202;BME280;14717;46.924;15.474;2023-02-01T07:34:43;97998.78;;;-1.99;96.93
27202;BME280;14717;46.924;15.474;2023-02-01T07:37:08;97999.41;;;-1.91;96.35
27202;BME280;14717;46.924;15.474;2023-02-01T07:39:34;97998.56;;;-1.85;95.96
27202;BME280;14717;46.924;15.474;2023-02-01T07:41:59;98006.06;;;-1.87;96.59
27202;BME280;14717;46.924;15.474;2023-02-01T07:44:24;98005.44;;;-1.82;96.32
27202;BME280;14717;46.924;15.474;2023-02-01T07:46:50;98011.19;;;-1.66;96.88
27202;BME280;14717;46.924;15.474;2023-02-01T07:49:15;98007.22;;;-1.57;95.69
27202;BME280;14717;46.924;15.474;2023-02-01T07:51:42;98007.59;;;-1.47;96.88
27202;BME280;14717;46.924;15.474;2023-02-01T07:54:08;98010.25;;;-1.34;95.96
27202;BME280;14717;46.924;15.474;2023-02-01T07:56:33;98006.66;;;-1.28;95.06
27202;BME280;14717;46.924;15.474;2023-02-01T07:58:58;98016.41;;;-1.15;94.84
27202;BME280;14717;46.924;15.474;2023-02-01T08:01:27;98011.56;;;-1.06;94.95
27202;BME280;14717;46.924;15.474;2023-02-01T08:03:58;98030.69;;;-0.95;94.92
27202;BME280;14717;46.924;15.474;2023-02-01T08:06:27;98022.66;;;-0.77;95.18
27202;BME280;14717;46.924;15.474;2023-02-01T08:08:53;98029.47;;;-0.68;94.44
27202;BME280;14717;46.924;15.474;2023-02-01T08:11:20;98031.97;;;-0.67;94.45
27202;BME280;14717;46.924;15.474;2023-02-01T08:13:45;98041.09;;;-0.61;93.61
27202;BME280;14717;46.924;15.474;2023-02-01T08:16:13;98028.56;;;-0.56;94.34
27202;BME280;14717;46.924;15.474;2023-02-01T08:18:39;98035.84;;;-0.56;94.20
27202;BME280;14717;46.924;15.474;2023-02-01T08:23:35;98028.31;;;-0.54;94.29
27202;BME280;14717;46.924;15.474;2023-02-01T08:26:08;98027.22;;;-0.47;93.66
27202;BME280;14717;46.924;15.474;2023-02-01T08:28:34;98024.72;;;-0.48;94.65
27202;BME280;14717;46.924;15.474;2023-02-01T08:31:04;98032.16;;;-0.38;94.44
27202;BME280;14717;46.924;15.474;2023-02-01T08:33:29;98041.50;;;-0.34;94.69
27202;BME280;14717;46.924;15.474;2023-02-01T08:35:55;98035.22;;;-0.28;93.50
27202;BME280;14717;46.924;15.474;2023-02-01T08:38:20;98040.81;;;-0.23;93.69
27202;BME280;14717;46.924;15.474;2023-02-01T08:40:46;98028.44;;;-0.19;93.85
27202;BME280;14717;46.924;15.474;2023-02-01T08:43:11;98022.63;;;-0.22;94.29
27202;BME280;14717;46.924;15.474;2023-02-01T08:45:37;98009.22;;;-0.17;93.65
27202;BME280;14717;46.924;15.474;2023-02-01T08:48:02;98024.69;;;-0.18;94.12
27202;BME280;14717;46.924;15.474;2023-02-01T08:50:30;98020.84;;;-0.10;94.05
27202;BME280;14717;46.924;15.474;2023-02-01T08:52:56;98013.19;;;0.04;94.07
27202;BME280;14717;46.924;15.474;2023-02-01T08:55:21;98015.56;;;0.19;93.00
27202;BME280;14717;46.924;15.474;2023-02-01T08:57:47;98018.88;;;0.21;93.63
27202;BME280;14717;46.924;15.474;2023-02-01T09:00:16;98008.78;;;0.28;93.22
27202;BME280;14717;46.924;15.474;2023-02-01T09:02:42;97996.50;;;0.43;93.26
27202;BME280;14717;46.924;15.474;2023-02-01T09:05:08;97997.63;;;0.71;91.78
27202;BME280;14717;46.924;15.474;2023-02-01T09:07:35;98000.47;;;0.94;90.80
27202;BME280;14717;46.924;15.474;2023-02-01T09:10:01;98006.81;;;1.17;91.02
27202;BME280;14717;46.924;15.474;2023-02-01T09:12:31;97996.94;;;1.34;89.83
27202;BME280;14717;46.924;15.474;2023-02-01T09:14:58;98002.78;;;1.49;89.58
27202;BME280;14717;46.924;15.474;2023-02-01T09:17:25;97994.44;;;1.73;90.05
27202;BME280;14717;46.924;15.474;2023-02-01T09:19:50;98001.78;;;1.84;88.49
27202;BME280;14717;46.924;15.474;2023-02-01T09:22:16;97987.94;;;1.97;88.53
27202;BME280;14717;46.924;15.474;2023-02-01T09:24:41;97986.78;;;2.15;88.51
27202;BME280;14717;46.924;15.474;2023-02-01T09:27:07;97977.28;;;2.29;86.62
27202;BME280;14717;46.924;15.474;2023-02-01T09:29:32;97993.38;;;2.42;86.81
27202;BME280;14717;46.924;15.474;2023-02-01T09:31:57;97985.91;;;2.60;87.41
27202;BME280;14717;46.924;15.474;2023-02-01T09:34:23;97981.47;;;2.71;84.80
27202;BME280;14717;46.924;15.474;2023-02-01T09:36:48;97970.09;;;2.74;83.08
27202;BME280;14717;46.924;15.474;2023-02-01T09:39:14;97976.94;;;2.88;82.64
27202;BME280;14717;46.924;15.474;2023-02-01T09:42:15;97973.09;;;3.00;81.52
27202;BME280;14717;46.924;15.474;2023-02-01T09:47:53;97965.63;;;3.23;82.09
27202;BME280;14717;46.924;15.474;2023-02-01T09:50:22;97964.84;;;3.39;77.22
27202;BME280;14717;46.924;15.474;2023-02-01T09:52:54;97951.56;;;3.59;78.00
27202;BME280;14717;46.924;15.474;2023-02-01T09:55:32;97964.22;;;3.81;80.26
27202;BME280;14717;46.924;15.474;2023-02-01T09:58:04;97941.16;;;3.88;77.83
27202;BME280;14717;46.924;15.474;2023-02-01T10:00:35;97947.19;;;3.90;77.07
27202;BME280;14717;46.924;15.474;2023-02-01T10:03:03;97953.03;;;4.15;80.08
27202;BME280;14717;46.924;15.474;2023-02-01T10:08:46;97935.66;;;4.21;78.17
27202;BME280;14717;46.924;15.474;2023-02-01T10:16:52;97906.63;;;4.79;74.08
27202;BME280;14717;46.924;15.474;2023-02-01T10:19:28;97902.75;;;5.01;74.60
27202;BME280;14717;46.924;15.474;2023-02-01T10:22:01;97922.53;;;5.03;73.05
27202;BME280;14717;46.924;15.474;2023-02-01T10:24:42;97899.28;;;5.06;73.83
27202;BME280;14717;46.924;15.474;2023-02-01T10:27:19;97911.75;;;5.18;74.16
27202;BME280;14717;46.924;15.474;2023-02-01T10:29:51;97902.06;;;5.37;73.80
27202;BME280;14717;46.924;15.474;2023-02-01T10:32:39;97890.78;;;5.59;72.78
27202;BME280;14717;46.924;15.474;2023-02-01T10:35:28;97903.88;;;5.52;70.89
27202;BME280;14717;46.924;15.474;2023-02-01T10:38:02;97885.34;;;5.64;70.53
27202;BME280;14717;46.924;15.474;2023-02-01T10:40:28;97876.19;;;5.80;68.85
27202;BME280;14717;46.924;15.474;2023-02-01T10:42:57;97872.53;;;6.06;69.03
27202;BME280;14717;46.924;15.474;2023-02-01T10:45:26;97873.75;;;6.25;67.86
27202;BME280;14717;46.924;15.474;2023-02-01T10:47:53;97865.06;;;6.37;66.76
27202;BME280;14717;46.924;15.474;2023-02-01T10:50:35;97854.69;;;6.49;67.42
27202;BME280;14717;46.924;15.474;2023-02-01T10:53:16;97840.56;;;6.77;67.17
27202;BME280;14717;46.924;15.474;2023-02-01T10:58:20;97863.16;;;7.14;64.80
27202;BME280;14717;46.924;15.474;2023-02-01T11:00:59;97856.28;;;7.21;63.15
27202;BME280;14717;46.924;15.474;2023-02-01T11:03:40;97839.28;;;7.34;63.51
27202;BME280;14717;46.924;15.474;2023-02-01T11:06:18;97828.59;;;7.52;62.56
27202;BME280;14717;46.924;15.474;2023-02-01T11:08:58;97841.22;;;7.23;62.02
27202;BME280;14717;46.924;15.474;2023-02-01T11:11:25;97836.78;;;7.08;64.36
27202;BME280;14717;46.924;15.474;2023-02-01T11:13:59;97838.72;;;7.12;64.20
27202;BME280;14717;46.924;15.474;2023-02-01T11:16:36;97831.84;;;7.34;63.12
27202;BME280;14717;46.924;15.474;2023-02-01T11:19:02;97834.09;;;7.57;64.13
27202;BME280;14717;46.924;15.474;2023-02-01T11:21:28;97821.47;;;7.66;61.27
27202;BME280;14717;46.924;15.474;2023-02-01T11:23:54;97797.25;;;7.73;64.38
27202;BME280;14717;46.924;15.474;2023-02-01T11:26:22;97830.25;;;7.63;63.66
27202;BME280;14717;46.924;15.474;2023-02-01T11:28:56;97825.78;;;7.13;65.01
27202;BME280;14717;46.924;15.474;2023-02-01T11:31:24;97821.44;;;7.41;65.98
27202;BME280;14717;46.924;15.474;2023-02-01T11:33:53;97808.81;;;7.60;63.53
27202;BME280;14717;46.924;15.474;2023-02-01T11:36:28;97800.53;;;7.75;62.46
27202;BME280;14717;46.924;15.474;2023-02-01T11:42:03;97789.28;;;7.71;62.85
27202;BME280;14717;46.924;15.474;2023-02-01T11:49:43;97764.66;;;8.34;59.88
27202;BME280;14717;46.924;15.474;2023-02-01T12:14:52;97738.66;;;10.90;47.77
27202;BME280;14717;46.924;15.474;2023-02-01T12:17:41;97730.66;;;11.07;46.48
27202;BME280;14717;46.924;15.474;2023-02-01T12:34:19;97719.09;;;11.73;42.44
27202;BME280;14717;46.924;15.474;2023-02-01T12:37:07;97718.28;;;11.86;39.66
27202;BME280;14717;46.924;15.474;2023-02-01T12:42:18;97724.97;;;11.98;39.53
27202;BME280;14717;46.924;15.474;2023-02-01T12:45:00;97724.88;;;12.03;38.95
27202;BME280;14717;46.924;15.474;2023-02-01T12:47:41;97725.69;;;12.04;39.27
27202;BME280;14717;46.924;15.474;2023-02-01T12:50:28;97728.28;;;12.14;37.07
27202;BME280;14717;46.924;15.474;2023-02-01T12:53:23;97726.94;;;12.11;35.68
27202;BME280;14717;46.924;15.474;2023-02-01T12:55:55;97727.56;;;12.08;37.33
27202;BME280;14717;46.924;15.474;2023-02-01T12:58:44;97727.75;;;12.12;37.19
27202;BME280;14717;46.924;15.474;2023-02-01T13:03:58;97738.03;;;12.11;35.66
27202;BME280;14717;46.924;15.474;2023-02-01T13:06:41;97733.63;;;12.24;36.50
27202;BME280;14717;46.924;15.474;2023-02-01T13:09:22;97745.84;;;12.23;35.60
27202;BME280;14717;46.924;15.474;2023-02-01T13:11:51;97730.63;;;12.20;33.15
27202;BME280;14717;46.924;15.474;2023-02-01T13:17:32;97740.06;;;12.06;34.56
27202;BME280;14717;46.924;15.474;2023-02-01T13:22:45;97741.00;;;12.15;35.24
27202;BME280;14717;46.924;15.474;2023-02-01T13:27:39;97732.50;;;12.11;36.08
27202;BME280;14717;46.924;15.474;2023-02-01T13:30:21;97737.53;;;12.09;36.53
27202;BME280;14717;46.924;15.474;2023-02-01T13:32:55;97737.81;;;12.08;35.60
27202;BME280;14717;46.924;15.474;2023-02-01T13:41:42;97741.59;;;11.98;36.45
27202;BME280;14717;46.924;15.474;2023-02-01T13:44:41;97747.00;;;11.90;35.21
27202;BME280;14717;46.924;15.474;2023-02-01T13:47:35;97762.31;;;11.69;36.03
27202;BME280;14717;46.924;15.474;2023-02-01T13:52:44;97763.44;;;11.68;36.12
27202;BME280;14717;46.924;15.474;2023-02-01T13:57:42;97758.59;;;11.60;35.63
27202;BME280;14717;46.924;15.474;2023-02-01T14:00:24;97757.31;;;11.53;36.06
27202;BME280;14717;46.924;15.474;2023-02-01T14:23:42;97788.84;;;11.34;36.75
27202;BME280;14717;46.924;15.474;2023-02-01T14:26:11;97796.19;;;11.25;36.63
27202;BME280;14717;46.924;15.474;2023-02-01T14:28:41;97794.00;;;11.22;37.57
27202;BME280;14717;46.924;15.474;2023-02-01T14:31:40;97807.63;;;11.18;36.46
27202;BME280;14717;46.924;15.474;2023-02-01T14:34:13;97795.66;;;11.23;37.76
27202;BME280;14717;46.924;15.474;2023-02-01T14:37:03;97809.06;;;11.16;37.68
27202;BME280;14717;46.924;15.474;2023-02-01T14:42:43;97804.69;;;11.10;37.45
27202;BME280;14717;46.924;15.474;2023-02-01T14:47:51;97819.25;;;10.97;37.48
27202;BME280;14717;46.924;15.474;2023-02-01T15:00:53;97825.66;;;10.69;37.98
27202;BME280;14717;46.924;15.474;2023-02-01T15:03:25;97816.97;;;10.58;38.97
27202;BME280;14717;46.924;15.474;2023-02-01T15:05:56;97826.97;;;10.54;38.98
27202;BME280;14717;46.924;15.474;2023-02-01T15:08:35;97838.25;;;10.57;37.48
27202;BME280;14717;46.924;15.474;2023-02-01T15:11:11;97829.75;;;10.54;38.59
27202;BME280;14717;46.924;15.474;2023-02-01T15:13:39;97830.91;;;10.48;38.25
27202;BME280;14717;46.924;15.474;2023-02-01T15:16:13;97836.53;;;10.38;39.19
27202;BME280;14717;46.924;15.474;2023-02-01T15:18:39;97835.31;;;10.25;39.44
27202;BME280;14717;46.924;15.474;2023-02-01T15:21:16;97842.75;;;10.25;39.19
27202;BME280;14717;46.924;15.474;2023-02-01T15:23:43;97845.25;;;10.21;39.05
27202;BME280;14717;46.924;15.474;2023-02-01T15:26:11;97843.44;;;10.12;39.33
27202;BME280;14717;46.924;15.474;2023-02-01T15:28:36;97856.44;;;10.07;38.94
27202;BME280;14717;46.924;15.474;2023-02-01T15:31:04;97859.50;;;10.05;38.89
27202;BME280;14717;46.924;15.474;2023-02-01T15:33:31;97854.03;;;10.00;38.71
27202;BME280;14717;46.924;15.474;2023-02-01T15:38:39;97862.63;;;9.94;39.80
27202;BME280;14717;46.924;15.474;2023-02-01T15:41:18;97867.94;;;9.80;39.80
27202;BME280;14717;46.924;15.474;2023-02-01T15:46:12;97855.38;;;9.70;40.02
27202;BME280;14717;46.924;15.474;2023-02-01T15:48:57;97863.75;;;9.55;41.41
27202;BME280;14717;46.924;15.474;2023-02-01T15:51:25;97863.81;;;9.45;41.86
27202;BME280;14717;46.924;15.474;2023-02-01T15:54:01;97868.25;;;9.41;41.38
27202;BME280;14717;46.924;15.474;2023-02-01T15:56:29;97866.31;;;9.36;41.71
27202;BME280;14717;46.924;15.474;2023-02-01T15:59:00;97872.75;;;9.27;41.52
27202;BME280;14717;46.924;15.474;2023-02-01T16:01:27;97879.94;;;9.18;42.13
27202;BME280;14717;46.924;15.474;2023-02-01T16:04:26;97874.47;;;9.08;42.46
27202;BME280;14717;46.924;15.474;2023-02-01T16:06:57;97887.19;;;9.04;41.85
27202;BME280;14717;46.924;15.474;2023-02-01T16:09:36;97884.75;;;8.98;42.01
27202;BME280;14717;46.924;15.474;2023-02-01T16:12:03;97880.03;;;9.03;41.81
27202;BME280;14717;46.924;15.474;2023-02-01T16:14:28;97883.03;;;9.07;42.34
27202;BME280;14717;46.924;15.474;2023-02-01T16:16:57;97890.53;;;8.91;42.35
27202;BME280;14717;46.924;15.474;2023-02-01T16:19:22;97888.38;;;8.84;42.21
27202;BME280;14717;46.924;15.474;2023-02-01T16:21:53;97889.81;;;8.71;43.17
27202;BME280;14717;46.924;15.474;2023-02-01T16:24:19;97891.22;;;8.49;44.00
27202;BME280;14717;46.924;15.474;2023-02-01T16:26:44;97895.09;;;8.48;43.66
27202;BME280;14717;46.924;15.474;2023-02-01T16:29:10;97896.22;;;8.42;44.41
27202;BME280;14717;46.924;15.474;2023-02-01T16:31:37;97895.13;;;8.38;44.46
27202;BME280;14717;46.924;15.474;2023-02-01T16:34:04;97900.06;;;8.41;43.78
27202;BME280;14717;46.924;15.474;2023-02-01T16:36:31;97902.53;;;8.33;44.75
27202;BME280;14717;46.924;15.474;2023-02-01T16:38:57;97911.66;;;8.18;45.46
27202;BME280;14717;46.924;15.474;2023-02-01T16:41:24;97907.78;;;8.09;45.24
27202;BME280;14717;46.924;15.474;2023-02-01T16:43:50;97911.66;;;8.18;45.00
27202;BME280;14717;46.924;15.474;2023-02-01T16:46:18;97913.84;;;8.11;45.48
27202;BME280;14717;46.924;15.474;2023-02-01T16:49:18;97912.19;;;8.05;46.18
27202;BME280;14717;46.924;15.474;2023-02-01T16:51:44;97914.41;;;7.94;46.80
27202;BME280;14717;46.924;15.474;2023-02-01T16:54:10;97918.22;;;7.93;46.95